Time;durP1;ratioP1;P1;durP2;ratioP2;P2;SDS_P1;SDS_P2;PMS_P1;PMS_P2;Temp;Humidity;BMP_temperature;BMP_pressure;BME280_temperature;BME280_humidity;BME280_pressure;Samples;Min_cycle;Max_cycle;Signal;HPM_P1;HPM_P2
2022/09/14 00:00:49;;;;;;;;;;;19.00;99.90;;;;;;5034787;28;19929;-73
2022/09/14 00:03:17;;;;;;;;;;;19.00;99.90;;;;;;5034060;28;19933;-73
2022/09/14 00:05:44;;;;;;;;;;;19.00;99.90;;;;;;5036882;28;19925;-72
2022/09/14 00:08:11;;;;;;;;;;;19.00;99.90;;;;;;5034109;28;19986;-71
2022/09/14 00:10:38;;;;;;;;;;;19.00;99.90;;;;;;5038963;28;20026;-75
2022/09/14 00:13:05;;;;;;;;;;;19.00;99.90;;;;;;5032136;28;20015;-73
2022/09/14 00:15:35;;;;;;;;;;;19.00;99.90;;;;;;5037393;28;19925;-73
2022/09/14 00:18:03;;;;;;;;;;;19.00;99.90;;;;;;5030797;28;19925;-72
2022/09/14 00:20:30;;;;;;;;;;;19.00;99.90;;;;;;5031661;28;19932;-70
2022/09/14 00:22:57;;;;;;;;;;;19.00;99.90;;;;;;5035848;28;19935;-71
2022/09/14 00:25:25;;;;;;;;;;;18.90;99.90;;;;;;5039384;28;19933;-72
2022/09/14 00:27:51;;;;;;;;;;;18.90;99.90;;;;;;5040970;28;20215;-71
2022/09/14 00:30:18;;;;;;;;;;;18.90;99.90;;;;;;5038484;28;20296;-72
2022/09/14 00:32:48;;;;;;;;;;;18.90;99.90;;;;;;5042712;28;19964;-73
2022/09/14 00:35:16;;;;;;;;;;;18.90;99.90;;;;;;5022440;28;21306;-73
2022/09/14 00:37:43;;;;;;;;;;;18.90;99.90;;;;;;5021562;28;20079;-73
2022/09/14 00:40:11;;;;;;;;;;;18.80;99.90;;;;;;5039212;28;19929;-71
2022/09/14 00:42:38;;;;;;;;;;;18.90;99.90;;;;;;5039230;28;19925;-73
2022/09/14 00:45:08;;;;;;;;;;;18.80;99.90;;;;;;5036430;28;19929;-73
2022/09/14 00:47:38;;;;;;;;;;;18.80;99.90;;;;;;5021500;28;19972;-72
2022/09/14 00:50:05;;;;;;;;;;;18.80;99.90;;;;;;5038046;28;19941;-73
2022/09/14 00:52:35;;;;;;;;;;;18.80;99.90;;;;;;5037948;28;20335;-73
2022/09/14 00:55:04;;;;;;;;;;;18.80;99.90;;;;;;5035362;28;20338;-73
2022/09/14 00:57:34;;;;;;;;;;;18.80;99.90;;;;;;5036596;28;19933;-73
2022/09/14 01:00:01;;;;;;;;;;;18.80;99.90;;;;;;5039090;28;20032;-72
2022/09/14 01:02:28;;;;;;;;;;;18.80;99.90;;;;;;5017742;28;19928;-73
2022/09/14 01:04:57;;;;;;;;;;;18.80;99.90;;;;;;5044301;28;19924;-72
2022/09/14 01:07:32;;;;;;;;;;;18.80;99.90;;;;;;5020748;28;19929;-72
2022/09/14 01:10:06;;;;;;;;;;;18.80;99.90;;;;;;5037895;28;20015;-73
2022/09/14 01:12:40;;;;;;;;;;;18.70;99.90;;;;;;5035410;28;22104;-73
2022/09/14 01:15:11;;;;;;;;;;;18.70;99.90;;;;;;5035136;28;19933;-73
2022/09/14 01:17:43;;;;;;;;;;;18.70;99.90;;;;;;5039854;28;20321;-72
2022/09/14 01:20:15;;;;;;;;;;;18.70;99.90;;;;;;5021018;28;19952;-73
2022/09/14 01:22:44;;;;;;;;;;;18.70;99.90;;;;;;5037907;28;19990;-73
2022/09/14 01:25:16;;;;;;;;;;;18.70;99.90;;;;;;5040563;28;19991;-72
2022/09/14 01:27:45;;;;;;;;;;;18.70;99.90;;;;;;5031482;28;19932;-71
2022/09/14 01:30:13;;;;;;;;;;;18.70;99.90;;;;;;5037502;28;19971;-72
2022/09/14 01:32:43;;;;;;;;;;;18.70;99.90;;;;;;5034788;28;19936;-73
2022/09/14 01:35:13;;;;;;;;;;;18.70;99.90;;;;;;5036224;28;19982;-75
2022/09/14 01:37:42;;;;;;;;;;;18.60;99.90;;;;;;5037300;28;19968;-73
2022/09/14 01:40:13;;;;;;;;;;;18.60;99.90;;;;;;5036939;28;19933;-73
2022/09/14 01:42:42;;;;;;;;;;;18.60;99.90;;;;;;5036203;28;20369;-73
2022/09/14 01:45:13;;;;;;;;;;;18.60;99.90;;;;;;5030720;28;20023;-72
2022/09/14 01:47:41;;;;;;;;;;;18.60;99.90;;;;;;5037952;28;19933;-74
2022/09/14 01:50:10;;;;;;;;;;;18.60;99.90;;;;;;5039324;28;19982;-72
2022/09/14 01:52:40;;;;;;;;;;;18.60;99.90;;;;;;5038511;28;19929;-73
2022/09/14 01:55:09;;;;;;;;;;;18.60;99.90;;;;;;5033595;28;19928;-71
2022/09/14 01:57:39;;;;;;;;;;;18.60;99.90;;;;;;5034430;28;19932;-73
2022/09/14 02:00:08;;;;;;;;;;;18.60;99.90;;;;;;5034915;28;20298;-73
2022/09/14 02:02:39;;;;;;;;;;;18.60;99.90;;;;;;5024393;28;20006;-73
2022/09/14 02:05:09;;;;;;;;;;;18.60;99.90;;;;;;5018016;28;19924;-73
2022/09/14 02:07:39;;;;;;;;;;;18.60;99.90;;;;;;5037076;28;20015;-72
2022/09/14 02:10:10;;;;;;;;;;;18.50;99.90;;;;;;5038961;28;20050;-72
2022/09/14 02:12:37;;;;;;;;;;;18.50;99.90;;;;;;5031144;28;20448;-73
2022/09/14 02:15:05;;;;;;;;;;;18.50;99.90;;;;;;5022756;28;19964;-72
2022/09/14 02:17:36;;;;;;;;;;;18.50;99.90;;;;;;5034950;28;19929;-72
2022/09/14 02:20:05;;;;;;;;;;;18.50;99.90;;;;;;5033249;28;20039;-71
2022/09/14 02:22:32;;;;;;;;;;;18.50;99.90;;;;;;5021808;28;20302;-73
2022/09/14 02:24:59;;;;;;;;;;;18.50;99.90;;;;;;5023141;28;19929;-72
2022/09/14 02:27:26;;;;;;;;;;;18.50;99.90;;;;;;5035192;28;19933;-73
2022/09/14 02:29:53;;;;;;;;;;;18.50;99.90;;;;;;5038917;28;19936;-72
2022/09/14 02:32:23;;;;;;;;;;;18.50;99.90;;;;;;5030317;28;20184;-71
2022/09/14 02:34:58;;;;;;;;;;;18.50;99.90;;;;;;5033951;28;20347;-71
2022/09/14 02:37:27;;;;;;;;;;;18.50;99.90;;;;;;5036545;28;19932;-73
2022/09/14 02:39:58;;;;;;;;;;;18.50;99.90;;;;;;5037210;28;19956;-73
2022/09/14 02:42:28;;;;;;;;;;;18.50;99.90;;;;;;5028838;28;19925;-73
2022/09/14 02:45:00;;;;;;;;;;;18.40;99.90;;;;;;5037291;28;19925;-72
2022/09/14 02:47:30;;;;;;;;;;;18.50;99.90;;;;;;5019556;28;20009;-73
2022/09/14 02:50:02;;;;;;;;;;;18.40;99.90;;;;;;5035389;28;19990;-73
2022/09/14 02:52:32;;;;;;;;;;;18.50;99.90;;;;;;5099094;23;20364;-77
2022/09/14 02:55:01;;;;;;;;;;;18.40;99.90;;;;;;5026464;22;20056;-73
2022/09/14 02:57:28;;;;;;;;;;;18.40;99.90;;;;;;4992638;28;21262;-72
2022/09/14 02:59:55;;;;;;;;;;;18.40;99.90;;;;;;4985295;28;20347;-72
2022/09/14 03:02:22;;;;;;;;;;;18.40;99.90;;;;;;4994639;28;19933;-73
2022/09/14 03:04:49;;;;;;;;;;;18.40;99.90;;;;;;4997813;28;19936;-71
2022/09/14 03:07:17;;;;;;;;;;;18.40;99.90;;;;;;4996619;28;20311;-73
2022/09/14 03:09:44;;;;;;;;;;;18.40;99.90;;;;;;4995633;28;20288;-71
2022/09/14 03:12:11;;;;;;;;;;;18.40;99.90;;;;;;4992052;28;20028;-73
2022/09/14 03:14:37;;;;;;;;;;;18.40;99.90;;;;;;5003102;28;19929;-73
2022/09/14 03:17:04;;;;;;;;;;;18.40;99.90;;;;;;4992550;28;20379;-71
2022/09/14 03:19:31;;;;;;;;;;;18.40;99.90;;;;;;4999964;28;19979;-72
2022/09/14 03:21:58;;;;;;;;;;;18.40;99.90;;;;;;4996953;28;20021;-73
2022/09/14 03:24:26;;;;;;;;;;;18.40;99.90;;;;;;4998055;28;19941;-73
2022/09/14 03:26:53;;;;;;;;;;;18.40;99.90;;;;;;4996397;28;20358;-73
2022/09/14 03:29:27;;;;;;;;;;;18.40;99.90;;;;;;4997741;28;20413;-72
2022/09/14 03:31:54;;;;;;;;;;;18.30;99.90;;;;;;4977759;28;19965;-73
2022/09/14 03:34:21;;;;;;;;;;;18.40;99.90;;;;;;4997597;28;19933;-72
2022/09/14 03:36:48;;;;;;;;;;;18.30;99.90;;;;;;4977742;28;19930;-73
2022/09/14 03:39:15;;;;;;;;;;;18.30;99.90;;;;;;4992330;28;19972;-73
2022/09/14 03:41:43;;;;;;;;;;;18.30;99.90;;;;;;4993398;28;19940;-72
2022/09/14 03:44:10;;;;;;;;;;;18.30;99.90;;;;;;4996413;28;19932;-73
2022/09/14 03:46:37;;;;;;;;;;;18.30;99.90;;;;;;4992429;28;19936;-74
2022/09/14 03:49:03;;;;;;;;;;;18.30;99.90;;;;;;4990767;28;20020;-73
2022/09/14 03:51:30;;;;;;;;;;;18.30;99.90;;;;;;4993183;28;20420;-73
2022/09/14 03:53:57;;;;;;;;;;;18.30;99.90;;;;;;4996625;28;19926;-73
2022/09/14 03:56:24;;;;;;;;;;;18.30;99.90;;;;;;4996893;28;19929;-75
2022/09/14 03:58:52;;;;;;;;;;;18.30;99.90;;;;;;4966830;28;19976;-72
2022/09/14 04:01:20;;;;;;;;;;;18.30;99.90;;;;;;4973155;28;19964;-73
2022/09/14 04:03:47;;;;;;;;;;;18.30;99.90;;;;;;4984676;28;19932;-73
2022/09/14 04:06:15;;;;;;;;;;;18.20;99.90;;;;;;5001586;28;19926;-73
2022/09/14 04:08:42;;;;;;;;;;;18.30;99.90;;;;;;5006052;28;19933;-73
2022/09/14 04:11:09;;;;;;;;;;;18.30;99.90;;;;;;5005302;28;19926;-73
2022/09/14 04:13:36;;;;;;;;;;;18.30;99.90;;;;;;4997926;28;19934;-72
2022/09/14 04:16:04;;;;;;;;;;;18.30;99.90;;;;;;5008811;23;20012;-79
2022/09/14 04:18:31;;;;;;;;;;;18.30;99.90;;;;;;5005209;28;19930;-79
2022/09/14 04:20:59;;;;;;;;;;;18.20;99.90;;;;;;5003396;28;19925;-80
2022/09/14 04:23:26;;;;;;;;;;;18.20;99.90;;;;;;5006065;28;19932;-80
2022/09/14 04:25:53;;;;;;;;;;;18.20;99.90;;;;;;4994225;28;20024;-79
2022/09/14 04:28:20;;;;;;;;;;;18.20;99.90;;;;;;5006999;28;19937;-79
2022/09/14 04:30:54;;;;;;;;;;;18.20;99.90;;;;;;5006807;28;20319;-79
2022/09/14 04:33:23;;;;;;;;;;;18.20;99.90;;;;;;5005859;28;19961;-78
2022/09/14 04:35:56;;;;;;;;;;;18.20;99.90;;;;;;4998688;28;19934;-81
2022/09/14 04:38:23;;;;;;;;;;;18.20;99.90;;;;;;4997699;28;19930;-79
2022/09/14 04:40:50;;;;;;;;;;;18.20;99.90;;;;;;4996193;28;19933;-81
2022/09/14 04:43:17;;;;;;;;;;;18.20;99.90;;;;;;4995083;28;19979;-78
2022/09/14 04:45:44;;;;;;;;;;;18.20;99.90;;;;;;5007286;28;20303;-79
2022/09/14 04:48:11;;;;;;;;;;;18.20;99.90;;;;;;5003592;28;20024;-78
2022/09/14 04:50:39;;;;;;;;;;;18.20;99.90;;;;;;5017490;28;20414;-79
2022/09/14 04:53:06;;;;;;;;;;;18.20;99.90;;;;;;5008386;28;20398;-79
2022/09/14 04:55:33;;;;;;;;;;;18.10;99.90;;;;;;5014338;28;20002;-79
2022/09/14 04:57:59;;;;;;;;;;;18.10;99.90;;;;;;5009276;28;19937;-79
2022/09/14 05:00:26;;;;;;;;;;;18.10;99.90;;;;;;5011463;28;19926;-79
2022/09/14 05:02:53;;;;;;;;;;;18.10;99.90;;;;;;5009411;28;20336;-79
2022/09/14 05:05:20;;;;;;;;;;;18.10;99.90;;;;;;5014111;28;19926;-79
2022/09/14 05:07:48;;;;;;;;;;;18.10;99.90;;;;;;5009480;28;20232;-79
2022/09/14 05:10:15;;;;;;;;;;;18.10;99.90;;;;;;4992058;28;19933;-82
2022/09/14 05:12:42;;;;;;;;;;;18.10;99.90;;;;;;5004807;28;19929;-80
2022/09/14 05:15:09;;;;;;;;;;;18.10;99.90;;;;;;5005157;28;19930;-78
2022/09/14 05:17:36;;;;;;;;;;;18.10;99.90;;;;;;5017866;28;19938;-79
2022/09/14 05:20:05;;;;;;;;;;;18.10;99.90;;;;;;5009026;28;19973;-79
2022/09/14 05:22:32;;;;;;;;;;;18.10;99.90;;;;;;5004960;28;19925;-85
2022/09/14 05:25:00;;;;;;;;;;;18.10;99.90;;;;;;5006779;28;19933;-84
2022/09/14 05:27:27;;;;;;;;;;;18.10;99.90;;;;;;5011205;28;19968;-88
2022/09/14 05:29:53;;;;;;;;;;;18.10;99.90;;;;;;5012190;28;20020;-86
2022/09/14 05:32:20;;;;;;;;;;;18.10;99.90;;;;;;5008864;28;20032;-83
2022/09/14 05:34:47;;;;;;;;;;;18.20;99.90;;;;;;4995749;28;20071;-87
2022/09/14 05:37:14;;;;;;;;;;;18.20;99.90;;;;;;5008284;28;19931;-81
2022/09/14 05:39:40;;;;;;;;;;;18.20;99.90;;;;;;5011728;28;19933;-80
2022/09/14 05:42:09;;;;;;;;;;;18.20;99.90;;;;;;5005655;28;20384;-79
2022/09/14 05:44:35;;;;;;;;;;;18.20;99.90;;;;;;4992530;28;19926;-78
2022/09/14 05:47:02;;;;;;;;;;;18.20;99.90;;;;;;4999767;28;20392;-78
2022/09/14 05:49:29;;;;;;;;;;;18.20;99.90;;;;;;4999166;28;19929;-79
2022/09/14 05:51:56;;;;;;;;;;;18.20;99.90;;;;;;4997885;28;20071;-80
2022/09/14 05:54:23;;;;;;;;;;;18.20;99.90;;;;;;4990014;28;19934;-80
2022/09/14 05:56:50;;;;;;;;;;;18.20;99.90;;;;;;5007780;28;20020;-80
2022/09/14 05:59:18;;;;;;;;;;;18.20;99.90;;;;;;5011077;28;19929;-80
2022/09/14 06:01:45;;;;;;;;;;;18.20;99.90;;;;;;5011741;28;19926;-80
2022/09/14 06:04:11;;;;;;;;;;;18.20;99.90;;;;;;5016558;28;20471;-81
2022/09/14 06:06:38;;;;;;;;;;;18.20;99.90;;;;;;5011447;28;19987;-81
2022/09/14 06:09:05;;;;;;;;;;;18.20;99.90;;;;;;5012122;28;19926;-83
2022/09/14 06:11:35;;;;;;;;;;;18.20;99.90;;;;;;5005691;28;19925;-83
2022/09/14 06:14:02;;;;;;;;;;;18.20;99.90;;;;;;5016128;28;19925;-83
2022/09/14 06:16:30;;;;;;;;;;;18.20;99.90;;;;;;5014536;28;19930;-81
2022/09/14 06:18:57;;;;;;;;;;;18.20;99.90;;;;;;5011318;28;19925;-81
2022/09/14 06:21:27;;;;;;;;;;;18.20;99.90;;;;;;5027424;28;19948;-81
2022/09/14 06:23:54;;;;;;;;;;;18.20;99.90;;;;;;5017977;28;19971;-81
2022/09/14 06:26:21;;;;;;;;;;;18.20;99.90;;;;;;5016344;28;19999;-81
2022/09/14 06:28:50;;;;;;;;;;;18.20;99.90;;;;;;5012178;28;19930;-81
2022/09/14 06:31:21;;;;;;;;;;;18.20;99.90;;;;;;5012994;28;19940;-81
2022/09/14 06:33:50;;;;;;;;;;;18.20;99.90;;;;;;5027693;28;19929;-81
2022/09/14 06:36:19;;;;;;;;;;;18.20;99.90;;;;;;5011456;28;20003;-81
2022/09/14 06:38:47;;;;;;;;;;;18.20;99.90;;;;;;5014206;28;20008;-80
2022/09/14 06:41:17;;;;;;;;;;;18.20;99.90;;;;;;5015446;28;19926;-81
2022/09/14 06:43:44;;;;;;;;;;;18.20;99.90;;;;;;5015254;28;19926;-82
2022/09/14 06:46:12;;;;;;;;;;;18.20;99.90;;;;;;5011300;28;20399;-80
2022/09/14 06:48:39;;;;;;;;;;;18.20;99.90;;;;;;5026761;28;19940;-81
2022/09/14 06:51:15;;;;;;;;;;;18.20;99.90;;;;;;5010047;28;19929;-81
2022/09/14 06:53:42;;;;;;;;;;;18.20;99.90;;;;;;5011379;28;19926;-81
2022/09/14 06:56:09;;;;;;;;;;;18.20;99.90;;;;;;4994299;28;20028;-81
2022/09/14 06:58:38;;;;;;;;;;;18.20;99.90;;;;;;4999379;28;19965;-79
2022/09/14 07:01:06;;;;;;;;;;;18.20;99.90;;;;;;5005700;28;20403;-79
2022/09/14 07:03:35;;;;;;;;;;;18.20;99.90;;;;;;5005574;28;19948;-78
2022/09/14 07:06:05;;;;;;;;;;;18.30;99.90;;;;;;5006145;28;19925;-79
2022/09/14 07:08:33;;;;;;;;;;;18.30;99.90;;;;;;5002240;28;19929;-81
2022/09/14 07:11:00;;;;;;;;;;;18.30;99.90;;;;;;5004617;28;19986;-80
2022/09/14 07:13:28;;;;;;;;;;;18.30;99.90;;;;;;5002359;28;20350;-79
2022/09/14 07:15:55;;;;;;;;;;;18.30;99.90;;;;;;4998604;28;19926;-79
2022/09/14 07:18:22;;;;;;;;;;;18.30;99.90;;;;;;5010351;28;19961;-79
2022/09/14 07:20:49;;;;;;;;;;;18.30;99.90;;;;;;4997889;28;19933;-79
2022/09/14 07:23:15;;;;;;;;;;;18.30;99.90;;;;;;5008503;28;19984;-79
2022/09/14 07:25:44;;;;;;;;;;;18.30;99.90;;;;;;4998052;28;21806;-80
2022/09/14 07:28:11;;;;;;;;;;;18.30;99.90;;;;;;4996210;28;20537;-79
2022/09/14 07:30:40;;;;;;;;;;;18.30;99.90;;;;;;5003699;28;19930;-80
2022/09/14 07:33:07;;;;;;;;;;;18.30;99.90;;;;;;5012949;28;20310;-80
2022/09/14 07:35:34;;;;;;;;;;;18.30;99.90;;;;;;5009760;28;19926;-80
2022/09/14 07:38:01;;;;;;;;;;;18.30;99.90;;;;;;5009658;28;20056;-80
2022/09/14 07:40:28;;;;;;;;;;;18.40;99.90;;;;;;5010856;28;19933;-79
2022/09/14 07:42:56;;;;;;;;;;;18.40;99.90;;;;;;5008811;28;19925;-80
2022/09/14 07:45:22;;;;;;;;;;;18.40;99.90;;;;;;5013705;28;19964;-79
2022/09/14 07:47:49;;;;;;;;;;;18.40;99.90;;;;;;5000516;28;19929;-80
2022/09/14 07:50:19;;;;;;;;;;;18.40;99.90;;;;;;4998215;28;19976;-80
2022/09/14 07:52:49;;;;;;;;;;;18.40;99.90;;;;;;4990457;28;19932;-81
2022/09/14 07:55:18;;;;;;;;;;;18.40;99.90;;;;;;5009760;28;19936;-80
2022/09/14 07:57:45;;;;;;;;;;;18.40;99.90;;;;;;5011370;28;19929;-80
2022/09/14 08:00:15;;;;;;;;;;;18.40;99.90;;;;;;5011517;28;19932;-79
2022/09/14 08:02:44;;;;;;;;;;;18.40;99.90;;;;;;5015339;28;19929;-80
2022/09/14 08:05:14;;;;;;;;;;;18.40;99.90;;;;;;5014868;28;19926;-79
2022/09/14 08:07:41;;;;;;;;;;;18.50;99.90;;;;;;5010693;28;19925;-80
2022/09/14 08:10:12;;;;;;;;;;;18.50;99.90;;;;;;5013544;28;19932;-79
2022/09/14 08:12:39;;;;;;;;;;;18.50;99.90;;;;;;5015279;28;19959;-80
2022/09/14 08:15:08;;;;;;;;;;;18.50;99.90;;;;;;5009861;28;19961;-79
2022/09/14 08:17:37;;;;;;;;;;;18.50;99.90;;;;;;5014128;28;19925;-80
2022/09/14 08:20:05;;;;;;;;;;;18.50;99.90;;;;;;5007014;28;19930;-79
2022/09/14 08:22:31;;;;;;;;;;;18.50;99.90;;;;;;5013592;28;19929;-80
2022/09/14 08:25:01;;;;;;;;;;;18.50;99.90;;;;;;5012865;28;19925;-79
2022/09/14 08:27:28;;;;;;;;;;;18.60;99.90;;;;;;5004042;28;20013;-80
2022/09/14 08:29:56;;;;;;;;;;;18.60;99.90;;;;;;5009519;28;19926;-80
2022/09/14 08:32:23;;;;;;;;;;;18.60;99.90;;;;;;5004953;28;19933;-79
2022/09/14 08:34:52;;;;;;;;;;;18.60;99.90;;;;;;5015001;28;19929;-79
2022/09/14 08:37:20;;;;;;;;;;;18.70;99.90;;;;;;5008696;28;19955;-80
2022/09/14 08:39:47;;;;;;;;;;;18.70;99.90;;;;;;5014329;28;20295;-80
2022/09/14 08:42:15;;;;;;;;;;;18.70;99.90;;;;;;5016053;28;19925;-80
2022/09/14 08:44:43;;;;;;;;;;;18.70;99.90;;;;;;5016046;28;19934;-79
2022/09/14 08:47:11;;;;;;;;;;;18.70;99.90;;;;;;5017209;28;19936;-80
2022/09/14 08:49:44;;;;;;;;;;;18.80;99.90;;;;;;5015830;28;19926;-80
2022/09/14 08:52:21;;;;;;;;;;;18.80;99.90;;;;;;5017687;28;20399;-82
2022/09/14 08:54:52;;;;;;;;;;;18.80;99.90;;;;;;5013669;28;19925;-82
2022/09/14 08:57:25;;;;;;;;;;;18.80;99.90;;;;;;5017920;28;19952;-82
2022/09/14 09:00:02;;;;;;;;;;;18.90;99.90;;;;;;5014235;28;19932;-83
2022/09/14 09:02:40;;;;;;;;;;;18.90;99.90;;;;;;5012155;28;19926;-80
2022/09/14 09:05:13;;;;;;;;;;;18.90;99.90;;;;;;5015541;28;19925;-80
2022/09/14 09:07:49;;;;;;;;;;;18.90;99.90;;;;;;5015227;28;19929;-80
2022/09/14 09:10:16;;;;;;;;;;;18.90;99.90;;;;;;5007292;28;19953;-80
2022/09/14 09:12:45;;;;;;;;;;;19.00;99.90;;;;;;5019370;28;19925;-80
2022/09/14 09:15:20;;;;;;;;;;;19.00;99.90;;;;;;5018909;28;19934;-79
2022/09/14 09:17:52;;;;;;;;;;;19.00;99.90;;;;;;5015639;28;19925;-80
2022/09/14 09:20:22;;;;;;;;;;;19.00;99.90;;;;;;5015372;28;20456;-79
2022/09/14 09:22:58;;;;;;;;;;;19.00;99.90;;;;;;5019784;28;20400;-79
2022/09/14 09:25:32;;;;;;;;;;;19.00;99.90;;;;;;5014198;28;20342;-80
2022/09/14 09:28:05;;;;;;;;;;;19.10;99.90;;;;;;5011746;28;19953;-80
2022/09/14 09:30:39;;;;;;;;;;;19.10;99.90;;;;;;5017697;28;20024;-80
2022/09/14 09:33:09;;;;;;;;;;;19.10;99.90;;;;;;5014052;28;19936;-79
2022/09/14 09:35:52;;;;;;;;;;;19.20;99.90;;;;;;5010918;28;20303;-79
2022/09/14 09:38:33;;;;;;;;;;;19.20;99.90;;;;;;5016431;28;19931;-80
2022/09/14 09:41:05;;;;;;;;;;;19.20;99.90;;;;;;5013212;28;19968;-80
2022/09/14 09:43:56;;;;;;;;;;;19.20;99.90;;;;;;5021427;28;19929;-79
2022/09/14 09:46:31;;;;;;;;;;;19.30;99.90;;;;;;5016952;28;19976;-80
2022/09/14 09:49:11;;;;;;;;;;;19.30;99.90;;;;;;5034000;28;19925;-79
2022/09/14 09:51:40;;;;;;;;;;;19.30;99.90;;;;;;5011862;28;19925;-80
2022/09/14 09:54:25;;;;;;;;;;;19.40;99.90;;;;;;5018132;28;20358;-80
2022/09/14 09:56:56;;;;;;;;;;;19.30;99.90;;;;;;5009029;28;20369;-79
2022/09/14 09:59:34;;;;;;;;;;;19.40;99.90;;;;;;5016454;28;19933;-79
2022/09/14 10:02:26;;;;;;;;;;;19.40;99.90;;;;;;4995086;28;20023;-79
2022/09/14 10:04:57;;;;;;;;;;;19.50;99.90;;;;;;5004879;28;20285;-78
2022/09/14 10:07:25;;;;;;;;;;;19.60;99.90;;;;;;5006820;28;19980;-78
2022/09/14 10:10:03;;;;;;;;;;;19.60;99.90;;;;;;5006482;28;20020;-81
2022/09/14 10:12:32;;;;;;;;;;;19.60;99.90;;;;;;5014845;28;20407;-79
2022/09/14 10:15:05;;;;;;;;;;;19.60;99.90;;;;;;5012520;28;20024;-78
2022/09/14 10:17:32;;;;;;;;;;;19.60;99.90;;;;;;5009415;28;19959;-77
2022/09/14 10:20:00;;;;;;;;;;;19.60;99.90;;;;;;5018302;28;19929;-83
2022/09/14 10:22:28;;;;;;;;;;;19.70;99.90;;;;;;5033393;28;19933;-85
2022/09/14 10:24:56;;;;;;;;;;;19.70;99.90;;;;;;5017002;28;19943;-83
2022/09/14 10:27:36;;;;;;;;;;;19.70;99.90;;;;;;5013563;28;19939;-84
2022/09/14 10:30:04;;;;;;;;;;;19.70;99.90;;;;;;5014181;28;19959;-81
2022/09/14 10:32:32;;;;;;;;;;;19.80;99.90;;;;;;5011336;28;20323;-78
2022/09/14 10:34:59;;;;;;;;;;;19.80;99.90;;;;;;5016551;28;19932;-78
2022/09/14 10:37:32;;;;;;;;;;;19.80;99.90;;;;;;5018738;28;20358;-80
2022/09/14 10:40:09;;;;;;;;;;;19.80;99.90;;;;;;5012305;28;20307;-78
2022/09/14 10:42:45;;;;;;;;;;;19.90;99.90;;;;;;5016741;28;19929;-78
2022/09/14 10:45:17;;;;;;;;;;;19.90;99.90;;;;;;5008448;28;20015;-78
2022/09/14 10:47:51;;;;;;;;;;;19.90;99.90;;;;;;5009301;28;19940;-78
2022/09/14 10:50:27;;;;;;;;;;;20.00;99.90;;;;;;5008777;28;20485;-78
2022/09/14 10:52:59;;;;;;;;;;;20.00;99.90;;;;;;5015841;28;19925;-78
2022/09/14 10:55:35;;;;;;;;;;;20.00;99.90;;;;;;5014963;28;19955;-79
2022/09/14 10:58:23;;;;;;;;;;;20.00;99.90;;;;;;5006754;28;19926;-78
2022/09/14 11:00:54;;;;;;;;;;;20.00;99.90;;;;;;5007547;28;19951;-78
2022/09/14 11:03:35;;;;;;;;;;;20.10;99.90;;;;;;5009725;28;19930;-78
2022/09/14 11:06:05;;;;;;;;;;;;;;;;;;5012888;28;20439;-78
2022/09/14 11:08:39;;;;;;;;;;;20.10;99.90;;;;;;5010744;28;19925;-78
2022/09/14 11:11:26;;;;;;;;;;;20.20;99.90;;;;;;5006697;28;20278;-78
2022/09/14 11:14:00;;;;;;;;;;;20.20;99.90;;;;;;5013903;28;19933;-77
2022/09/14 11:16:40;;;;;;;;;;;20.20;99.90;;;;;;5003303;28;19933;-87
2022/09/14 11:19:16;;;;;;;;;;;20.20;99.90;;;;;;5006477;28;19933;-86
2022/09/14 11:21:46;;;;;;;;;;;20.30;99.90;;;;;;5003438;28;20013;-82
2022/09/14 11:24:15;;;;;;;;;;;20.30;99.90;;;;;;5011188;28;19965;-87
2022/09/14 11:26:44;;;;;;;;;;;20.30;99.90;;;;;;5010231;28;20482;-81
2022/09/14 11:29:16;;;;;;;;;;;20.30;99.90;;;;;;5006412;28;19933;-82
2022/09/14 11:31:48;;;;;;;;;;;20.40;99.90;;;;;;5007673;28;20012;-81
2022/09/14 11:37:01;;;;;;;;;;;20.40;99.90;;;;;;5001862;28;19932;-81
2022/09/14 11:39:36;;;;;;;;;;;20.40;99.90;;;;;;5009380;28;20380;-82
2022/09/14 11:42:10;;;;;;;;;;;20.40;99.90;;;;;;5011587;28;19933;-82
2022/09/14 11:44:39;;;;;;;;;;;20.50;99.90;;;;;;5000056;28;19941;-80
2022/09/14 11:47:09;;;;;;;;;;;20.50;99.90;;;;;;5004465;28;20029;-81
2022/09/14 11:49:43;;;;;;;;;;;20.50;99.90;;;;;;5007261;28;19949;-80
2022/09/14 11:52:13;;;;;;;;;;;20.60;99.90;;;;;;5013647;28;20012;-81
2022/09/14 11:54:40;;;;;;;;;;;20.60;99.90;;;;;;5021738;28;19937;-81
2022/09/14 11:57:10;;;;;;;;;;;20.60;99.90;;;;;;5022120;28;19932;-81
2022/09/14 11:59:49;;;;;;;;;;;20.60;99.90;;;;;;5008920;28;20347;-81
2022/09/14 12:02:49;;;;;;;;;;;20.70;99.90;;;;;;5004976;28;19944;-82
2022/09/14 12:05:28;;;;;;;;;;;20.70;99.90;;;;;;5009686;28;19983;-81
2022/09/14 12:08:00;;;;;;;;;;;20.70;99.90;;;;;;5012000;28;20024;-81
2022/09/14 12:10:27;;;;;;;;;;;20.70;99.90;;;;;;5012604;28;19952;-79
2022/09/14 12:12:54;;;;;;;;;;;20.80;99.90;;;;;;5020384;28;20289;-81
2022/09/14 12:15:32;;;;;;;;;;;20.80;99.90;;;;;;5015177;28;19956;-81
2022/09/14 12:18:20;;;;;;;;;;;20.80;99.90;;;;;;5014166;28;20016;-87
2022/09/14 12:20:51;;;;;;;;;;;20.80;99.90;;;;;;5006025;28;20012;-80
2022/09/14 12:23:22;;;;;;;;;;;20.80;99.90;;;;;;5012155;28;19936;-82
2022/09/14 12:26:00;;;;;;;;;;;20.90;99.90;;;;;;5014208;28;19932;-81
2022/09/14 12:28:28;;;;;;;;;;;20.90;99.90;;;;;;5022621;28;20280;-79
2022/09/14 12:31:22;;;;;;;;;;;20.90;99.90;;;;;;5007534;28;21973;-81
2022/09/14 12:34:08;;;;;;;;;;;20.90;99.90;;;;;;4962559;28;19972;-80
2022/09/14 12:36:56;;;;;;;;;;;20.90;99.90;;;;;;5004288;28;19941;-80
2022/09/14 12:39:27;;;;;;;;;;;20.90;99.90;;;;;;5008559;28;19925;-81
2022/09/14 12:42:21;;;;;;;;;;;21.00;99.90;;;;;;5009764;28;19929;-80
2022/09/14 12:44:47;;;;;;;;;;;21.00;99.90;;;;;;5012962;28;19941;-81
2022/09/14 12:47:34;;;;;;;;;;;21.00;99.90;;;;;;5014901;28;20010;-80
2022/09/14 12:50:05;;;;;;;;;;;21.00;99.90;;;;;;5022897;28;20339;-80
2022/09/14 12:52:35;;;;;;;;;;;21.10;99.90;;;;;;5018847;28;19948;-81
2022/09/14 12:55:17;;;;;;;;;;;21.10;99.90;;;;;;5013675;28;19984;-81
2022/09/14 12:57:49;;;;;;;;;;;21.10;99.90;;;;;;5020346;28;19929;-81
2022/09/14 13:00:18;;;;;;;;;;;21.10;99.90;;;;;;5000732;28;19934;-80
2022/09/14 13:03:07;;;;;;;;;;;21.10;99.90;;;;;;5001020;28;19925;-82
2022/09/14 13:05:35;;;;;;;;;;;21.10;99.90;;;;;;4997191;28;20360;-81
2022/09/14 13:08:09;;;;;;;;;;;21.10;99.90;;;;;;5018071;28;19937;-81
2022/09/14 13:10:38;;;;;;;;;;;21.10;99.90;;;;;;5012462;28;19948;-81
2022/09/14 13:13:06;;;;;;;;;;;21.00;99.90;;;;;;5019292;28;19925;-81
2022/09/14 13:15:36;;;;;;;;;;;21.10;99.90;;;;;;5013842;28;20455;-81
2022/09/14 13:18:06;;;;;;;;;;;21.00;99.90;;;;;;5014566;28;19941;-81
2022/09/14 13:20:34;;;;;;;;;;;21.00;99.90;;;;;;5008234;28;20462;-81
2022/09/14 13:23:03;;;;;;;;;;;21.10;99.90;;;;;;5019726;28;20007;-81
2022/09/14 13:25:34;;;;;;;;;;;21.00;99.90;;;;;;5010889;28;19929;-81
2022/09/14 13:28:04;;;;;;;;;;;21.10;99.90;;;;;;5010857;28;19925;-81
2022/09/14 13:30:32;;;;;;;;;;;21.00;99.90;;;;;;5011372;28;19951;-81
2022/09/14 13:33:01;;;;;;;;;;;21.00;99.90;;;;;;5024612;28;19947;-81
2022/09/14 13:35:30;;;;;;;;;;;21.00;99.90;;;;;;5014980;28;19956;-81
2022/09/14 13:37:57;;;;;;;;;;;21.00;99.90;;;;;;5019183;28;19925;-81
2022/09/14 13:40:26;;;;;;;;;;;21.00;99.90;;;;;;5012517;28;20318;-81
2022/09/14 13:42:59;;;;;;;;;;;21.00;99.90;;;;;;5020341;28;19925;-81
2022/09/14 13:45:27;;;;;;;;;;;21.00;99.90;;;;;;5017829;28;20395;-81
2022/09/14 13:47:54;;;;;;;;;;;21.00;99.90;;;;;;5010575;28;19925;-81
2022/09/14 13:50:22;;;;;;;;;;;21.00;99.90;;;;;;5020055;28;19926;-81
2022/09/14 13:52:49;;;;;;;;;;;21.00;99.90;;;;;;5011220;28;20388;-81
2022/09/14 13:55:19;;;;;;;;;;;21.00;99.90;;;;;;5017528;28;20412;-81
2022/09/14 13:58:07;;;;;;;;;;;21.00;99.90;;;;;;5011281;28;20343;-81
2022/09/14 14:00:48;;;;;;;;;;;21.00;99.90;;;;;;5017880;28;19953;-81
2022/09/14 14:03:22;;;;;;;;;;;21.00;99.90;;;;;;5008754;28;19926;-81
2022/09/14 14:05:49;;;;;;;;;;;21.00;99.90;;;;;;5014105;28;19988;-80
2022/09/14 14:08:28;;;;;;;;;;;21.00;99.90;;;;;;5014217;28;20423;-81
2022/09/14 14:10:55;;;;;;;;;;;21.00;99.90;;;;;;5005353;28;20024;-81
2022/09/14 14:13:25;;;;;;;;;;;21.00;99.90;;;;;;5013129;28;19949;-81
2022/09/14 14:15:54;;;;;;;;;;;21.00;99.90;;;;;;5012532;28;19972;-82
2022/09/14 14:18:32;;;;;;;;;;;21.00;99.90;;;;;;5015039;28;19931;-81
2022/09/14 14:21:11;;;;;;;;;;;21.00;99.90;;;;;;5013100;28;20016;-81
2022/09/14 14:23:41;;;;;;;;;;;21.00;99.90;;;;;;5011711;28;19925;-81
2022/09/14 14:26:09;;;;;;;;;;;21.00;99.90;;;;;;5013455;28;19988;-81
2022/09/14 14:28:37;;;;;;;;;;;21.00;99.90;;;;;;5016734;28;19980;-81
2022/09/14 14:31:08;;;;;;;;;;;21.00;99.90;;;;;;5012485;28;19933;-81
2022/09/14 14:33:36;;;;;;;;;;;21.00;99.90;;;;;;5018446;28;19932;-81
2022/09/14 14:36:08;;;;;;;;;;;21.00;99.90;;;;;;5007163;28;20052;-81
2022/09/14 14:38:35;;;;;;;;;;;21.00;99.90;;;;;;5017404;28;19925;-81